Time;durP1;ratioP1;P1;durP2;ratioP2;P2;SDS_P1;SDS_P2;PMS_P1;PMS_P2;Temp;Humidity;BMP_temperature;BMP_pressure;BME280_temperature;BME280_humidity;BME280_pressure;Samples;Min_cycle;Max_cycle;Signal;HPM_P1;HPM_P2
2022/01/07 00:00:56;;;;;;;30.98;7.55;;;1.50;80.40;;;;;;4121500;28;20029;-76
2022/01/07 00:02:57;;;;;;;23.13;7.45;;;1.50;80.40;;;;;;4127747;28;20287;-76
2022/01/07 00:04:57;;;;;;;22.38;6.80;;;1.50;80.40;;;;;;4144771;28;20484;-76
2022/01/07 00:06:58;;;;;;;27.48;7.88;;;1.50;80.40;;;;;;4128301;28;20551;-76
2022/01/07 00:08:58;;;;;;;26.00;6.95;;;1.50;80.30;;;;;;4128628;28;20050;-75
2022/01/07 00:10:59;;;;;;;24.15;7.60;;;1.50;80.40;;;;;;4160166;28;20033;-76
2022/01/07 00:12:59;;;;;;;29.80;7.93;;;1.50;80.50;;;;;;4160242;28;20057;-76
2022/01/07 00:15:00;;;;;;;19.63;6.75;;;1.50;81.20;;;;;;4144304;28;20041;-76
2022/01/07 00:17:01;;;;;;;30.45;8.38;;;1.60;80.50;;;;;;4147217;28;20073;-76
2022/01/07 00:19:02;;;;;;;25.83;8.55;;;1.50;80.50;;;;;;4128730;28;20535;-77
2022/01/07 00:21:03;;;;;;;27.67;7.75;;;1.50;80.50;;;;;;4123671;28;20431;-77
2022/01/07 00:23:03;;;;;;;25.63;8.18;;;1.60;80.60;;;;;;4164191;28;20022;-77
2022/01/07 00:25:05;;;;;;;21.52;7.97;;;1.60;80.70;;;;;;4146846;28;20624;-77
2022/01/07 00:27:05;;;;;;;24.27;8.05;;;1.60;80.70;;;;;;4146491;28;20044;-77
2022/01/07 00:29:06;;;;;;;34.10;8.82;;;1.60;80.60;;;;;;4147900;28;20388;-77
2022/01/07 00:31:06;;;;;;;28.42;9.02;;;1.60;80.70;;;;;;4155347;28;20685;-77
2022/01/07 00:33:07;;;;;;;28.33;9.32;;;1.60;80.60;;;;;;4123988;28;20081;-76
2022/01/07 00:35:08;;;;;;;26.55;8.73;;;1.70;80.70;;;;;;4131220;28;20026;-77
2022/01/07 00:37:09;;;;;;;27.45;8.68;;;1.60;80.70;;;;;;4166400;28;20456;-76
2022/01/07 00:39:10;;;;;;;33.58;11.00;;;1.70;80.70;;;;;;4139809;28;20026;-77
2022/01/07 00:41:10;;;;;;;32.90;9.40;;;1.70;80.70;;;;;;4155458;28;20014;-77
2022/01/07 00:43:11;;;;;;;26.25;9.82;;;1.70;80.70;;;;;;4165076;28;20057;-77
2022/01/07 00:45:11;;;;;;;31.63;10.88;;;1.70;80.60;;;;;;4115589;28;20085;-76
2022/01/07 00:47:12;;;;;;;34.85;10.38;;;1.70;80.50;;;;;;4139788;28;20460;-76
2022/01/07 00:49:20;;;;;;;38.05;10.23;;;1.70;80.50;;;;;;4131520;28;20042;-77
2022/01/07 00:51:21;;;;;;;37.70;11.38;;;1.70;80.50;;;;;;4142147;28;20021;-77
2022/01/07 00:53:21;;;;;;;29.60;11.23;;;1.80;80.50;;;;;;4146586;28;20053;-77
2022/01/07 00:55:23;;;;;;;36.88;10.73;;;1.80;80.50;;;;;;4155258;28;20042;-76
2022/01/07 00:57:24;;;;;;;36.20;10.73;;;1.80;80.50;;;;;;4144815;28;20037;-77
2022/01/07 00:59:24;;;;;;;31.70;12.18;;;1.80;80.50;;;;;;4147088;28;20093;-76
2022/01/07 01:01:25;;;;;;;32.72;11.13;;;1.80;80.40;;;;;;4151650;28;20017;-77
2022/01/07 01:03:25;;;;;;;31.70;10.82;;;1.80;80.40;;;;;;4129691;28;20030;-77
2022/01/07 01:05:26;;;;;;;31.38;11.52;;;1.80;80.40;;;;;;4130945;28;20396;-76
2022/01/07 01:07:27;;;;;;;32.30;11.43;;;1.80;80.30;;;;;;4159613;28;20084;-77
2022/01/07 01:09:27;;;;;;;33.00;11.80;;;1.80;80.30;;;;;;4146961;28;20040;-76
2022/01/07 01:11:28;;;;;;;38.80;13.02;;;1.80;80.30;;;;;;4150659;28;20395;-76
2022/01/07 01:13:31;;;;;;;31.60;11.18;;;1.80;80.20;;;;;;4125251;28;20023;-76
2022/01/07 01:15:32;;;;;;;26.35;12.15;;;1.90;80.30;;;;;;4164828;28;20029;-76
2022/01/07 01:17:32;;;;;;;37.88;11.73;;;1.90;80.30;;;;;;4165018;28;20498;-76
2022/01/07 01:19:33;;;;;;;30.13;12.38;;;1.80;80.10;;;;;;4163897;28;20030;-77
2022/01/07 01:21:35;;;;;;;33.90;11.60;;;1.90;81.00;;;;;;4114577;28;20062;-77
2022/01/07 01:23:35;;;;;;;35.63;12.35;;;1.90;80.20;;;;;;4145914;28;20049;-77
2022/01/07 01:25:36;;;;;;;31.42;11.65;;;1.90;80.20;;;;;;4146968;28;20030;-77
2022/01/07 01:27:36;;;;;;;34.40;11.77;;;1.90;80.20;;;;;;4143557;28;20029;-75
2022/01/07 01:29:38;;;;;;;34.72;12.52;;;1.90;80.20;;;;;;4146010;28;20478;-77
2022/01/07 01:31:39;;;;;;;42.40;12.68;;;1.90;80.10;;;;;;4139664;28;20018;-76
2022/01/07 01:33:39;;;;;;;31.35;12.48;;;1.90;80.10;;;;;;4149448;28;20606;-76
2022/01/07 01:35:40;;;;;;;38.17;12.73;;;1.90;80.10;;;;;;4171142;28;20501;-76
2022/01/07 01:37:41;;;;;;;38.65;12.57;;;1.90;80.00;;;;;;4151142;28;20025;-76
2022/01/07 01:39:41;;;;;;;43.13;12.70;;;1.90;80.00;;;;;;4138477;28;20026;-76
2022/01/07 01:41:42;;;;;;;35.00;12.63;;;1.90;79.90;;;;;;4138441;28;20026;-76
2022/01/07 01:43:42;;;;;;;40.55;13.18;;;1.90;79.80;;;;;;4130199;28;20388;-77
2022/01/07 01:45:43;;;;;;;36.60;12.05;;;1.90;79.80;;;;;;4147069;28;20026;-76
2022/01/07 01:47:44;;;;;;;36.58;13.00;;;2.00;79.90;;;;;;4163945;28;20013;-76
2022/01/07 01:49:44;;;;;;;35.42;12.75;;;2.00;79.80;;;;;;4126757;28;20397;-77
2022/01/07 01:51:45;;;;;;;40.00;13.73;;;1.90;79.80;;;;;;4161579;28;20237;-76
2022/01/07 01:53:45;;;;;;;33.35;13.98;;;2.00;79.80;;;;;;4159058;28;20491;-75
2022/01/07 01:55:46;;;;;;;36.88;13.05;;;2.00;79.80;;;;;;4146348;28;20030;-75
2022/01/07 01:57:47;;;;;;;34.33;12.75;;;2.00;79.80;;;;;;4146522;28;20022;-75
2022/01/07 01:59:47;;;;;;;38.20;13.10;;;2.00;79.70;;;;;;4146486;28;20033;-75
2022/01/07 02:01:48;;;;;;;32.08;13.35;;;2.00;79.60;;;;;;4155623;28;20030;-76
2022/01/07 02:03:49;;;;;;;30.40;12.63;;;2.00;79.60;;;;;;4153917;28;20084;-76
2022/01/07 02:05:49;;;;;;;34.95;12.05;;;2.00;79.60;;;;;;4146437;28;20267;-76
2022/01/07 02:07:50;;;;;;;38.53;12.80;;;2.00;79.50;;;;;;4163520;28;20045;-76
2022/01/07 02:09:51;;;;;;;31.23;13.18;;;2.00;79.50;;;;;;4189309;23;20053;-82
2022/01/07 02:11:51;;;;;;;34.55;12.27;;;2.00;79.40;;;;;;4146458;28;20033;-82
2022/01/07 02:13:55;;;;;;;35.97;12.35;;;2.00;79.40;;;;;;4146009;28;20170;-82
2022/01/07 02:15:56;;;;;;;28.38;12.10;;;2.00;79.30;;;;;;4155300;28;20068;-82
2022/01/07 02:17:57;;;;;;;34.08;13.63;;;2.00;79.30;;;;;;4137638;28;20038;-82
2022/01/07 02:19:58;;;;;;;34.13;11.68;;;2.00;79.20;;;;;;4149663;28;20045;-82
2022/01/07 02:21:58;;;;;;;34.03;12.85;;;2.00;79.30;;;;;;4130810;28;20485;-82
2022/01/07 02:23:59;;;;;;;31.50;11.90;;;2.00;79.20;;;;;;4175753;28;20032;-82
2022/01/07 02:26:00;;;;;;;33.55;12.73;;;2.00;79.20;;;;;;4165447;28;20024;-82
2022/01/07 02:28:00;;;;;;;28.63;12.18;;;2.00;79.20;;;;;;4161881;28;20100;-82
2022/01/07 02:30:01;;;;;;;28.13;12.65;;;2.00;79.20;;;;;;4146544;28;20026;-82
2022/01/07 02:32:01;;;;;;;32.28;13.60;;;2.00;79.10;;;;;;4184512;28;20111;-82
2022/01/07 02:34:02;;;;;;;37.60;14.10;;;2.00;79.10;;;;;;4148154;28;20040;-82
2022/01/07 02:36:09;;;;;;;29.73;11.98;;;2.00;79.10;;;;;;4169266;28;20030;-82
2022/01/07 02:38:09;;;;;;;31.40;12.55;;;2.00;79.00;;;;;;4151772;28;20496;-82
2022/01/07 02:40:10;;;;;;;32.13;12.68;;;2.00;79.00;;;;;;4173959;28;20053;-82
2022/01/07 02:42:11;;;;;;;41.28;12.27;;;2.00;79.00;;;;;;4142114;28;20030;-82
2022/01/07 02:44:12;;;;;;;34.90;12.98;;;2.00;78.90;;;;;;4165458;28;20030;-82
2022/01/07 02:46:12;;;;;;;37.13;12.63;;;2.00;79.00;;;;;;4155547;28;20064;-82
2022/01/07 02:48:13;;;;;;;32.90;12.73;;;2.00;78.90;;;;;;4181479;28;20123;-82
2022/01/07 02:50:14;;;;;;;38.85;12.85;;;2.00;79.00;;;;;;4151498;28;20069;-82
2022/01/07 02:52:14;;;;;;;33.75;12.10;;;2.00;79.00;;;;;;4161297;28;20030;-83
2022/01/07 02:54:15;;;;;;;41.85;13.38;;;2.10;79.00;;;;;;4180557;28;20025;-82
2022/01/07 02:56:16;;;;;;;34.05;12.30;;;2.10;78.90;;;;;;4173650;28;20419;-82
2022/01/07 02:58:17;;;;;;;40.70;13.38;;;2.10;78.90;;;;;;4153096;28;20018;-82
2022/01/07 03:00:18;;;;;;;35.95;12.52;;;2.10;78.90;;;;;;4167371;28;20017;-82
2022/01/07 03:02:18;;;;;;;44.80;12.82;;;2.10;78.90;;;;;;4150055;28;20416;-83
2022/01/07 03:04:19;;;;;;;33.47;13.35;;;2.10;78.90;;;;;;4148626;28;20029;-82
2022/01/07 03:06:21;;;;;;;30.80;14.23;;;2.10;78.90;;;;;;4155659;28;20541;-82
2022/01/07 03:08:21;;;;;;;36.97;13.80;;;2.10;78.90;;;;;;4148768;28;20037;-82
2022/01/07 03:10:29;;;;;;;44.72;13.38;;;2.10;78.80;;;;;;4162954;28;20033;-83
2022/01/07 03:12:30;;;;;;;37.67;13.85;;;2.10;78.80;;;;;;4169100;28;20060;-83
2022/01/07 03:14:30;;;;;;;33.80;12.45;;;2.10;78.80;;;;;;4163468;28;20044;-82
2022/01/07 03:16:31;;;;;;;36.92;14.10;;;2.10;78.70;;;;;;4163460;28;20021;-83
2022/01/07 03:18:32;;;;;;;35.78;14.70;;;2.10;78.70;;;;;;4165142;28;20025;-83
2022/01/07 03:20:38;;;;;;;32.60;13.57;;;2.10;78.70;;;;;;4166893;28;20026;-83
2022/01/07 03:22:38;;;;;;;38.15;14.65;;;2.10;78.70;;;;;;4147031;28;20025;-82
2022/01/07 03:24:40;;;;;;;34.90;14.05;;;2.10;78.70;;;;;;4173728;28;20534;-83
2022/01/07 03:26:40;;;;;;;43.15;15.23;;;2.10;78.70;;;;;;4169476;28;20032;-82
2022/01/07 03:28:41;;;;;;;37.45;14.55;;;2.10;78.70;;;;;;4158307;28;20422;-83
2022/01/07 03:30:42;;;;;;;38.55;14.68;;;2.10;78.70;;;;;;4142435;28;20026;-82
2022/01/07 03:32:42;;;;;;;49.60;15.60;;;2.10;78.70;;;;;;4145377;28;20033;-83
2022/01/07 03:34:43;;;;;;;36.15;15.20;;;2.10;78.70;;;;;;4145128;28;20113;-83
2022/01/07 03:36:44;;;;;;;37.50;14.95;;;2.00;78.70;;;;;;4159442;28;20064;-83
2022/01/07 03:38:44;;;;;;;37.50;15.63;;;2.00;78.70;;;;;;4163496;28;20022;-83
2022/01/07 03:40:45;;;;;;;42.40;13.73;;;2.00;78.70;;;;;;4158321;28;20049;-83
2022/01/07 03:42:46;;;;;;;31.30;13.50;;;2.00;78.70;;;;;;4184009;28;20490;-83
2022/01/07 03:44:46;;;;;;;44.72;16.80;;;2.00;78.80;;;;;;4181501;28;20041;-83
2022/01/07 03:46:47;;;;;;;41.55;15.30;;;2.00;78.70;;;;;;4161973;28;20030;-83
2022/01/07 03:48:48;;;;;;;37.97;14.75;;;2.00;78.70;;;;;;4161126;28;20021;-83
2022/01/07 03:50:48;;;;;;;37.08;14.85;;;2.00;78.80;;;;;;4180729;28;20032;-83
2022/01/07 03:52:49;;;;;;;36.30;15.23;;;2.00;78.80;;;;;;4165729;28;20104;-83
2022/01/07 03:54:50;;;;;;;39.72;14.90;;;2.00;78.90;;;;;;4167591;28;20032;-83
2022/01/07 03:56:51;;;;;;;40.92;15.57;;;2.00;78.90;;;;;;4165562;28;20148;-83
2022/01/07 03:58:52;;;;;;;38.22;15.15;;;2.00;78.90;;;;;;4166425;28;20029;-83
2022/01/07 04:00:52;;;;;;;34.53;15.23;;;2.00;78.90;;;;;;4159595;28;20029;-83
2022/01/07 04:02:53;;;;;;;32.63;15.40;;;2.00;78.90;;;;;;4167303;28;20268;-83
2022/01/07 04:04:53;;;;;;;38.88;14.50;;;2.00;78.90;;;;;;4142173;28;20096;-82
2022/01/07 04:06:54;;;;;;;35.78;13.38;;;1.90;78.80;;;;;;4149746;28;20033;-82
2022/01/07 04:08:54;;;;;;;38.75;14.48;;;1.90;78.90;;;;;;4148997;28;20062;-83
2022/01/07 04:10:55;;;;;;;31.92;14.20;;;1.90;78.90;;;;;;4180694;28;20045;-82
2022/01/07 04:12:56;;;;;;;30.60;13.88;;;1.90;79.00;;;;;;4150174;28;20058;-82
2022/01/07 04:15:08;;;;;;;30.95;13.77;;;1.90;79.00;;;;;;4140824;28;20026;-82
2022/01/07 04:17:08;;;;;;;32.13;14.55;;;1.90;79.10;;;;;;4199282;28;20418;-83
2022/01/07 04:19:09;;;;;;;33.20;14.73;;;1.90;79.10;;;;;;4160305;28;20077;-83
2022/01/07 04:21:10;;;;;;;34.75;13.45;;;1.80;79.10;;;;;;4164976;28;20018;-83
2022/01/07 04:23:10;;;;;;;31.48;15.32;;;1.90;79.20;;;;;;4133119;28;20026;-83
2022/01/07 04:25:17;;;;;;;30.20;14.35;;;1.80;79.20;;;;;;4165825;28;20029;-83
2022/01/07 04:27:18;;;;;;;30.05;13.68;;;1.80;79.20;;;;;;4167349;28;20096;-83
2022/01/07 04:29:18;;;;;;;34.15;15.23;;;1.90;79.20;;;;;;4175003;28;20113;-83
2022/01/07 04:31:19;;;;;;;34.28;15.82;;;1.80;79.10;;;;;;4164804;28;20033;-83
2022/01/07 04:33:26;;;;;;;32.70;15.32;;;1.80;79.20;;;;;;4168441;28;20040;-83
2022/01/07 04:35:27;;;;;;;30.08;13.85;;;1.80;79.20;;;;;;4142753;28;20526;-82
2022/01/07 04:37:28;;;;;;;36.75;15.13;;;1.80;79.30;;;;;;4164306;28;20025;-83
2022/01/07 04:39:28;;;;;;;33.10;13.77;;;1.80;79.30;;;;;;4147980;28;20411;-83
2022/01/07 04:41:29;;;;;;;31.10;13.65;;;1.80;79.30;;;;;;4168950;28;20025;-83
2022/01/07 04:43:29;;;;;;;25.85;13.68;;;1.80;79.40;;;;;;4148639;28;20551;-82
2022/01/07 04:45:30;;;;;;;25.45;13.85;;;1.80;79.40;;;;;;4164897;28;20086;-83
2022/01/07 04:47:31;;;;;;;31.85;14.50;;;1.80;79.30;;;;;;4165458;28;20153;-83
2022/01/07 04:49:32;;;;;;;32.30;14.68;;;1.70;79.30;;;;;;4156607;28;20037;-82
2022/01/07 04:51:33;;;;;;;31.38;14.82;;;1.80;79.40;;;;;;4157925;28;20045;-83
2022/01/07 04:53:33;;;;;;;27.25;14.55;;;1.70;79.30;;;;;;4161235;28;20033;-82
2022/01/07 04:55:37;;;;;;;29.27;14.13;;;1.70;79.30;;;;;;4166017;28;20048;-82
2022/01/07 04:57:38;;;;;;;26.15;12.70;;;1.70;79.40;;;;;;4166449;28;20036;-83
2022/01/07 04:59:39;;;;;;;32.63;14.43;;;1.70;79.40;;;;;;4147568;28;20118;-83
2022/01/07 05:01:39;;;;;;;29.92;14.23;;;1.70;79.40;;;;;;4182544;28;20020;-82
2022/01/07 05:03:40;;;;;;;26.20;13.15;;;1.70;79.40;;;;;;4149191;28;20424;-82
2022/01/07 05:05:44;;;;;;;30.48;14.82;;;1.70;79.60;;;;;;4140434;28;20492;-82
2022/01/07 05:07:44;;;;;;;28.75;15.00;;;1.70;79.40;;;;;;4169547;28;20478;-82
2022/01/07 05:09:45;;;;;;;29.05;14.15;;;1.70;79.40;;;;;;4155796;28;20116;-82
2022/01/07 05:11:46;;;;;;;27.88;14.70;;;1.70;79.40;;;;;;4159765;28;20025;-82
2022/01/07 05:13:47;;;;;;;26.48;14.32;;;1.70;79.50;;;;;;4147965;28;20034;-82
2022/01/07 05:15:47;;;;;;;30.55;14.02;;;1.70;79.50;;;;;;4158605;28;20029;-82
2022/01/07 05:17:48;;;;;;;26.00;13.65;;;1.70;79.60;;;;;;4148267;28;20026;-82
2022/01/07 05:19:48;;;;;;;27.42;13.95;;;1.70;79.60;;;;;;4140572;28;20503;-83
2022/01/07 05:21:49;;;;;;;27.23;13.82;;;1.70;79.60;;;;;;4164497;28;20036;-83
2022/01/07 05:23:49;;;;;;;34.60;13.70;;;1.70;79.60;;;;;;4147000;28;20030;-82
2022/01/07 05:25:50;;;;;;;29.10;13.38;;;1.70;79.60;;;;;;4180734;28;20017;-82
2022/01/07 05:27:51;;;;;;;24.40;13.07;;;1.70;79.70;;;;;;4172657;28;20565;-82
2022/01/07 05:29:51;;;;;;;29.30;14.15;;;1.70;79.70;;;;;;4159390;28;20029;-82
2022/01/07 05:31:52;;;;;;;30.02;12.40;;;1.70;79.70;;;;;;4156547;28;20022;-82
2022/01/07 05:33:53;;;;;;;29.08;13.45;;;1.70;79.70;;;;;;4164922;28;20403;-82
2022/01/07 05:35:53;;;;;;;29.48;14.95;;;1.70;79.70;;;;;;4153228;28;20033;-83
2022/01/07 05:37:54;;;;;;;26.08;14.35;;;1.70;79.80;;;;;;4163946;28;20407;-82
2022/01/07 05:39:57;;;;;;;30.58;13.27;;;1.70;79.80;;;;;;4146579;28;20077;-82
2022/01/07 05:41:59;;;;;;;29.30;14.02;;;1.70;79.80;;;;;;4154931;28;20083;-82
2022/01/07 05:43:59;;;;;;;26.40;14.18;;;1.70;79.80;;;;;;4162218;28;20037;-82
2022/01/07 05:46:00;;;;;;;34.45;15.02;;;1.60;79.70;;;;;;4184150;28;20021;-82
2022/01/07 05:48:01;;;;;;;28.95;14.35;;;1.70;79.80;;;;;;4164323;28;20021;-82
2022/01/07 05:50:01;;;;;;;26.75;13.60;;;1.60;79.80;;;;;;4177807;28;20093;-82
2022/01/07 05:52:02;;;;;;;30.38;14.00;;;1.60;79.80;;;;;;4163275;28;20017;-82
2022/01/07 05:54:03;;;;;;;26.45;13.48;;;1.60;79.80;;;;;;4163792;28;20514;-82
2022/01/07 05:56:03;;;;;;;37.13;14.85;;;1.60;79.90;;;;;;4167635;28;20391;-82
2022/01/07 05:58:04;;;;;;;35.88;15.07;;;1.60;79.90;;;;;;4165166;28;20014;-83
2022/01/07 06:00:06;;;;;;;31.52;14.50;;;1.60;79.90;;;;;;4197059;28;20073;-83
2022/01/07 06:02:07;;;;;;;31.23;15.82;;;1.60;79.90;;;;;;4181216;28;20262;-82
2022/01/07 06:04:07;;;;;;;31.38;14.13;;;1.60;79.90;;;;;;4164369;28;20534;-82
2022/01/07 06:06:08;;;;;;;29.95;14.60;;;1.60;79.90;;;;;;4157534;28;20084;-82
2022/01/07 06:08:09;;;;;;;27.38;13.95;;;1.60;79.90;;;;;;4164618;28;20026;-82
2022/01/07 06:10:10;;;;;;;30.20;15.23;;;1.60;79.90;;;;;;4178528;28;20041;-82
2022/01/07 06:12:11;;;;;;;31.40;15.93;;;1.60;79.90;;;;;;4154320;28;20036;-83
2022/01/07 06:14:11;;;;;;;29.50;13.90;;;1.60;79.90;;;;;;4141780;28;20036;-82
2022/01/07 06:16:12;;;;;;;31.25;14.90;;;1.60;79.90;;;;;;4152165;28;20032;-82
2022/01/07 06:18:12;;;;;;;34.15;14.27;;;1.60;79.90;;;;;;4164952;28;20032;-82
2022/01/07 06:20:13;;;;;;;28.13;13.10;;;1.60;79.90;;;;;;4159446;28;20029;-83
2022/01/07 06:22:14;;;;;;;28.40;12.98;;;1.60;80.00;;;;;;4145572;28;20139;-83
2022/01/07 06:24:14;;;;;;;27.70;13.77;;;1.60;80.00;;;;;;4161933;28;20032;-83
2022/01/07 06:26:15;;;;;;;29.13;14.20;;;1.60;80.00;;;;;;4167448;28;20041;-82
2022/01/07 06:28:17;;;;;;;25.02;13.55;;;1.60;80.00;;;;;;4154432;28;20404;-82
2022/01/07 06:30:17;;;;;;;29.02;14.43;;;1.60;80.10;;;;;;4149163;28;20044;-83
2022/01/07 06:32:18;;;;;;;26.88;14.20;;;1.60;80.10;;;;;;4141578;28;20424;-82
2022/01/07 06:34:20;;;;;;;29.92;14.65;;;1.60;80.10;;;;;;4158266;28;20048;-82
2022/01/07 06:36:20;;;;;;;28.90;14.35;;;1.60;80.10;;;;;;4139530;28;20520;-82
2022/01/07 06:38:21;;;;;;;31.70;14.90;;;1.60;80.10;;;;;;4168217;28;20025;-82
2022/01/07 06:40:22;;;;;;;28.63;14.77;;;1.60;80.10;;;;;;4150070;28;20550;-82
2022/01/07 06:42:22;;;;;;;30.05;14.10;;;1.60;80.10;;;;;;4176462;28;20029;-82
2022/01/07 06:44:23;;;;;;;29.65;15.32;;;1.60;80.10;;;;;;4150492;28;20085;-83
2022/01/07 06:46:23;;;;;;;28.60;13.68;;;1.60;80.10;;;;;;4118504;28;20066;-82
2022/01/07 06:48:24;;;;;;;30.90;15.32;;;1.60;80.10;;;;;;4180968;28;20029;-82
2022/01/07 06:50:25;;;;;;;29.00;14.43;;;1.60;80.10;;;;;;4167984;28;20037;-82
2022/01/07 06:52:25;;;;;;;29.42;13.73;;;1.60;80.20;;;;;;4155005;28;20103;-82
2022/01/07 06:54:27;;;;;;;29.55;14.50;;;1.60;80.90;;;;;;4146621;28;20028;-82
2022/01/07 06:56:28;;;;;;;31.63;14.77;;;1.60;80.30;;;;;;4119429;28;20019;-82
2022/01/07 06:58:29;;;;;;;31.65;13.57;;;1.60;80.30;;;;;;4160896;28;20037;-82
2022/01/07 07:00:30;;;;;;;27.70;13.50;;;1.60;80.30;;;;;;4181676;28;20036;-82
2022/01/07 07:02:31;;;;;;;23.70;12.93;;;1.60;80.30;;;;;;4173250;28;20025;-83
2022/01/07 07:04:31;;;;;;;24.83;12.60;;;1.60;80.20;;;;;;4167550;28;20412;-82
2022/01/07 07:06:32;;;;;;;28.63;13.35;;;1.70;80.20;;;;;;4150680;28;20026;-82
2022/01/07 07:08:32;;;;;;;29.05;13.55;;;1.70;80.20;;;;;;4151659;28;20408;-82
2022/01/07 07:10:33;;;;;;;21.83;12.65;;;1.70;80.20;;;;;;4135170;28;20037;-83
2022/01/07 07:12:34;;;;;;;29.70;12.85;;;1.60;80.10;;;;;;4140280;28;20026;-82
2022/01/07 07:14:35;;;;;;;22.35;12.35;;;1.60;80.10;;;;;;4147197;28;20030;-82
2022/01/07 07:16:36;;;;;;;27.92;12.88;;;1.60;80.10;;;;;;4166837;28;20572;-82
2022/01/07 07:18:36;;;;;;;22.85;12.27;;;1.60;80.10;;;;;;4161509;28;20029;-82
2022/01/07 07:20:37;;;;;;;21.80;12.18;;;1.60;80.10;;;;;;4184428;28;20044;-82
2022/01/07 07:22:38;;;;;;;22.95;11.63;;;1.60;80.10;;;;;;4171393;28;20176;-82
2022/01/07 07:24:38;;;;;;;21.00;11.68;;;1.60;80.10;;;;;;4159326;28;20021;-82
2022/01/07 07:26:39;;;;;;;20.17;11.48;;;1.60;80.10;;;;;;4159445;28;20025;-82
2022/01/07 07:28:40;;;;;;;21.55;10.75;;;1.60;80.20;;;;;;4166681;28;20041;-82
2022/01/07 07:30:42;;;;;;;21.05;11.90;;;1.60;80.30;;;;;;4184454;28;20395;-82
2022/01/07 07:32:42;;;;;;;20.67;11.63;;;1.70;80.30;;;;;;4147597;28;20096;-82
2022/01/07 07:34:56;;;;;;;20.35;12.38;;;1.70;80.30;;;;;;4173498;28;20024;-82
2022/01/07 07:36:57;;;;;;;;;;;1.70;80.30;;;;;;4150391;28;20030;-82
2022/01/07 07:39:01;;;;;;;21.98;12.15;;;1.70;80.30;;;;;;4164735;28;19963;-82
2022/01/07 07:41:01;;;;;;;24.50;12.45;;;1.70;80.10;;;;;;4150652;28;20064;-82
2022/01/07 07:43:02;;;;;;;23.02;12.40;;;1.70;80.10;;;;;;4167616;28;20030;-83
2022/01/07 07:45:03;;;;;;;23.35;12.25;;;1.70;80.10;;;;;;4165594;28;20037;-82
2022/01/07 07:47:04;;;;;;;29.05;11.73;;;1.70;80.10;;;;;;4159897;28;20085;-83
2022/01/07 07:49:05;;;;;;;27.80;12.35;;;1.70;80.10;;;;;;4182756;28;20029;-83
2022/01/07 07:51:05;;;;;;;24.90;13.32;;;1.70;80.10;;;;;;4167081;28;20037;-82
2022/01/07 07:53:06;;;;;;;23.77;12.50;;;1.70;80.10;;;;;;4151588;28;20033;-82
2022/01/07 07:55:07;;;;;;;19.30;12.00;;;1.70;80.10;;;;;;4161182;28;20040;-82
2022/01/07 07:57:07;;;;;;;25.02;12.52;;;1.70;80.10;;;;;;4167853;28;20462;-82
2022/01/07 07:59:08;;;;;;;24.77;11.50;;;1.70;80.20;;;;;;4158542;28;20042;-82
2022/01/07 08:01:09;;;;;;;21.58;11.88;;;1.70;80.30;;;;;;4151572;28;20609;-82
2022/01/07 08:03:09;;;;;;;20.05;12.05;;;1.70;80.30;;;;;;4140025;28;20044;-82
2022/01/07 08:05:10;;;;;;;20.70;12.52;;;1.70;80.30;;;;;;4161953;28;20030;-82
2022/01/07 08:07:16;;;;;;;28.60;12.13;;;1.70;80.20;;;;;;4167053;28;20484;-82
2022/01/07 08:09:16;;;;;;;20.77;12.00;;;1.70;80.30;;;;;;4174759;28;20082;-83
2022/01/07 08:11:17;;;;;;;20.83;10.90;;;1.70;80.30;;;;;;4189564;23;20483;-87
2022/01/07 08:13:28;;;;;;;19.20;11.55;;;1.80;80.40;;;;;;4157446;28;20034;-87
2022/01/07 08:17:48;;;;;;;18.58;10.27;;;1.70;80.40;;;;;;4174718;28;20029;-87
2022/01/07 08:19:50;;;;;;;20.42;10.77;;;1.80;80.40;;;;;;4148553;28;20040;-87
2022/01/07 08:21:51;;;;;;;15.98;10.52;;;1.80;80.50;;;;;;4160850;28;20534;-87
2022/01/07 08:23:53;;;;;;;19.88;9.77;;;1.80;80.50;;;;;;4127391;28;20027;-88
2022/01/07 08:25:54;;;;;;;17.95;10.45;;;1.70;80.40;;;;;;4159393;28;20034;-87
2022/01/07 08:27:56;;;;;;;15.65;10.30;;;1.70;80.40;;;;;;4127477;28;20091;-88
2022/01/07 08:29:57;;;;;;;19.98;10.48;;;1.80;80.50;;;;;;4139122;28;20100;-87
2022/01/07 08:36:50;;;;;;;20.20;11.70;;;1.80;80.50;;;;;;4129247;28;20034;-88
2022/01/07 08:38:52;;;;;;;16.38;10.70;;;1.70;80.50;;;;;;4126646;28;20591;-88
2022/01/07 08:40:52;;;;;;;17.50;11.18;;;1.70;80.50;;;;;;4144171;28;20104;-87
2022/01/07 08:42:53;;;;;;;17.55;10.73;;;1.80;80.60;;;;;;4145999;28;20037;-88
2022/01/07 08:44:54;;;;;;;19.38;11.13;;;1.70;80.60;;;;;;4114601;28;20042;-88
2022/01/07 08:46:58;;;;;;;15.80;10.00;;;1.70;80.60;;;;;;4154896;28;20425;-88
2022/01/07 08:48:58;;;;;;;17.80;10.38;;;1.80;81.00;;;;;;4129697;28;20034;-87
2022/01/07 08:50:59;;;;;;;15.85;10.32;;;1.70;80.70;;;;;;4130764;28;20133;-88
2022/01/07 08:53:01;;;;;;;18.13;10.75;;;1.80;80.90;;;;;;4149592;28;20037;-88
2022/01/07 08:55:02;;;;;;;21.98;11.27;;;1.80;80.90;;;;;;4113477;28;21110;-87
2022/01/07 08:57:16;;;;;;;20.27;10.82;;;1.70;80.90;;;;;;4160817;28;20018;-87
2022/01/07 08:59:16;;;;;;;18.33;10.90;;;1.70;80.80;;;;;;4140959;28;20022;-87
2022/01/07 09:01:18;;;;;;;19.50;10.70;;;1.80;81.00;;;;;;4121536;28;20030;-88
2022/01/07 09:03:18;;;;;;;15.98;10.10;;;1.90;81.00;;;;;;4132555;28;20027;-87
2022/01/07 09:05:19;;;;;;;20.20;10.27;;;1.90;81.00;;;;;;4147132;28;20068;-87
2022/01/07 09:07:20;;;;;;;18.23;9.68;;;1.80;81.00;;;;;;4127614;28;20682;-87
2022/01/07 09:09:24;;;;;;;23.05;10.60;;;1.80;81.00;;;;;;4114994;28;20037;-87
2022/01/07 09:11:25;;;;;;;17.48;10.57;;;1.90;81.20;;;;;;4129942;28;20053;-86
2022/01/07 09:13:26;;;;;;;20.85;11.05;;;1.80;81.00;;;;;;4161316;28;20061;-88
2022/01/07 09:15:26;;;;;;;20.98;10.85;;;1.90;81.10;;;;;;4145857;28;20580;-87
2022/01/07 09:17:30;;;;;;;21.00;10.32;;;1.90;81.20;;;;;;4129208;28;20019;-86
2022/01/07 09:19:30;;;;;;;21.17;11.38;;;1.90;81.20;;;;;;4154173;28;20033;-88
2022/01/07 09:21:34;;;;;;;19.35;10.90;;;1.90;81.20;;;;;;4152784;28;20034;-88
2022/01/07 09:23:34;;;;;;;;;;;1.90;81.20;;;;;;4163225;28;20490;-87
2022/01/07 09:25:35;;;;;;;18.58;10.90;;;1.90;81.50;;;;;;4146941;28;19909;-87
2022/01/07 09:27:36;;;;;;;20.52;11.55;;;2.00;81.40;;;;;;4127702;28;20034;-86
2022/01/07 09:29:40;;;;;;;24.55;11.48;;;2.00;81.40;;;;;;4145632;28;20026;-87
2022/01/07 09:31:43;;;;;;;20.25;10.55;;;2.00;81.40;;;;;;4141756;28;20431;-87
2022/01/07 09:33:44;;;;;;;21.75;10.85;;;2.00;81.50;;;;;;4162378;28;20112;-88
2022/01/07 09:35:45;;;;;;;23.02;11.10;;;2.10;81.60;;;;;;4146100;28;20338;-88
2022/01/07 09:37:46;;;;;;;22.48;11.55;;;2.00;81.60;;;;;;4145759;28;20022;-88
2022/01/07 09:39:46;;;;;;;21.27;10.55;;;2.10;81.70;;;;;;4141487;28;20175;-87
2022/01/07 09:41:47;;;;;;;25.45;10.85;;;2.10;81.80;;;;;;4144976;28;20034;-88
2022/01/07 09:43:48;;;;;;;18.33;10.50;;;2.10;81.90;;;;;;4130655;28;20054;-87
2022/01/07 09:45:49;;;;;;;23.58;11.70;;;2.20;81.90;;;;;;4147754;28;20085;-88
2022/01/07 09:47:53;;;;;;;23.80;11.02;;;2.20;82.00;;;;;;4143156;28;20062;-88
2022/01/07 09:49:54;;;;;;;21.50;10.40;;;2.20;81.90;;;;;;4129150;28;20483;-88
2022/01/07 09:51:54;;;;;;;20.75;11.43;;;2.30;82.00;;;;;;4149637;28;20167;-88
2022/01/07 09:53:55;;;;;;;21.75;11.52;;;2.30;82.00;;;;;;4127596;28;20500;-87
2022/01/07 09:55:56;;;;;;;28.17;16.80;;;2.30;82.00;;;;;;4130273;28;20036;-88
2022/01/07 09:57:57;;;;;;;20.00;12.32;;;2.30;82.00;;;;;;4146910;28;20022;-88
2022/01/07 10:00:00;;;;;;;18.05;10.57;;;2.30;81.90;;;;;;4161517;28;20029;-89
2022/01/07 10:02:02;;;;;;;20.83;10.70;;;2.30;81.90;;;;;;4144272;28;20045;-88
2022/01/07 10:04:03;;;;;;;20.80;10.73;;;2.40;81.90;;;;;;4130184;28;20030;-90
2022/01/07 10:06:18;;;;;;;18.17;9.50;;;2.40;82.00;;;;;;4149647;28;20029;-90
2022/01/07 10:08:23;;;;;;;19.45;10.48;;;2.40;81.80;;;;;;4140859;28;20412;-88
2022/01/07 10:10:24;;;;;;;30.40;14.88;;;2.50;81.90;;;;;;4163120;28;20025;-88
2022/01/07 10:12:25;;;;;;;29.08;15.57;;;2.40;81.80;;;;;;4128581;28;20503;-88
2022/01/07 10:14:27;;;;;;;27.83;12.77;;;2.40;81.80;;;;;;4140781;28;20537;-88
2022/01/07 10:16:31;;;;;;;26.20;14.27;;;2.40;81.90;;;;;;4130168;28;20117;-89
2022/01/07 10:18:37;;;;;;;27.05;13.75;;;2.40;81.80;;;;;;4143488;28;20116;-88
2022/01/07 10:20:43;;;;;;;30.67;15.13;;;2.50;82.70;;;;;;4150997;28;20653;-89
2022/01/07 10:22:54;;;;;;;29.02;13.52;;;2.50;81.90;;;;;;4128414;28;20037;-89
2022/01/07 10:24:59;;;;;;;32.85;16.33;;;2.50;81.90;;;;;;4140318;28;20121;-88
2022/01/07 10:27:15;;;;;;;48.38;21.58;;;2.50;81.90;;;;;;4137646;28;20034;-88
2022/01/07 10:29:28;;;;;;;30.88;12.45;;;2.50;81.90;;;;;;4143638;28;20500;-88
2022/01/07 10:31:28;;;;;;;52.20;21.95;;;2.50;81.80;;;;;;4143709;28;20502;-89